createdAt,value
2023-04-22T00:02:19.506Z,20.90
2023-04-22T00:05:14.470Z,20.90
2023-04-22T00:08:09.324Z,20.90
2023-04-22T00:11:02.764Z,20.90
2023-04-22T00:13:57.615Z,20.90
2023-04-22T00:16:50.645Z,20.80
2023-04-22T00:19:43.806Z,20.80
2023-04-22T00:22:37.439Z,20.90
2023-04-22T00:25:30.056Z,20.90
2023-04-22T00:28:23.343Z,20.80
2023-04-22T00:31:17.643Z,20.90
2023-04-22T00:34:10.447Z,20.90
2023-04-22T00:37:03.462Z,20.90
2023-04-22T00:39:57.873Z,20.90
2023-04-22T00:42:52.066Z,20.80
2023-04-22T00:45:46.312Z,20.90
2023-04-22T00:48:40.721Z,20.90
2023-04-22T00:51:33.558Z,20.90
2023-04-22T00:54:26.264Z,20.90
2023-04-22T00:57:19.834Z,20.90
2023-04-22T01:00:14.778Z,20.90
2023-04-22T01:03:09.287Z,20.90
2023-04-22T01:06:03.947Z,20.90
2023-04-22T01:08:57.848Z,20.80
2023-04-22T01:11:51.157Z,20.90
2023-04-22T01:14:44.232Z,20.80
2023-04-22T01:17:37.517Z,20.80
2023-04-22T01:20:31.138Z,20.90
2023-04-22T01:23:25.465Z,20.90
2023-04-22T01:26:18.339Z,20.80
2023-04-22T01:29:11.761Z,20.80
2023-04-22T01:32:04.978Z,20.80
2023-04-22T01:34:58.879Z,20.80
2023-04-22T01:37:52.611Z,20.80
2023-04-22T01:40:47.119Z,20.80
2023-04-22T01:43:40.716Z,20.80
2023-04-22T01:46:34.523Z,20.80
2023-04-22T01:49:27.489Z,20.80
2023-04-22T01:52:20.444Z,20.80
2023-04-22T01:55:13.964Z,20.80
2023-04-22T01:58:08.829Z,20.80
2023-04-22T02:01:02.598Z,20.80
2023-04-22T02:03:55.822Z,20.80
2023-04-22T02:06:49.610Z,20.80
2023-04-22T02:09:42.405Z,20.80
2023-04-22T02:12:36.022Z,20.80
2023-04-22T02:15:30.555Z,20.80
2023-04-22T02:18:23.253Z,20.80
2023-04-22T02:21:16.703Z,20.80
2023-04-22T02:24:09.780Z,20.80
2023-04-22T02:27:02.406Z,20.80
2023-04-22T02:29:55.489Z,20.80
2023-04-22T02:32:50.048Z,20.80
2023-04-22T02:35:43.528Z,20.80
2023-04-22T02:38:36.370Z,20.80
2023-04-22T02:41:29.750Z,20.80
2023-04-22T02:44:22.618Z,20.80
2023-04-22T02:47:15.711Z,20.80
2023-04-22T02:50:10.867Z,20.80
2023-04-22T02:53:04.296Z,20.80
2023-04-22T02:55:58.300Z,20.80
2023-04-22T02:58:51.844Z,20.80
2023-04-22T03:01:44.731Z,20.80
2023-04-22T03:04:38.061Z,20.80
2023-04-22T03:07:32.969Z,20.80
2023-04-22T03:10:26.512Z,20.80
2023-04-22T03:13:19.614Z,20.80
2023-04-22T03:16:12.793Z,20.80
2023-04-22T03:19:05.389Z,20.80
2023-04-22T03:21:59.180Z,20.80
2023-04-22T03:24:53.850Z,20.80
2023-04-22T03:27:46.936Z,20.80
2023-04-22T03:30:40.725Z,20.80
2023-04-22T03:33:33.824Z,20.80
2023-04-22T03:36:27.253Z,20.80
2023-04-22T03:39:20.470Z,20.80
2023-04-22T03:42:15.619Z,20.80
2023-04-22T03:45:09.093Z,20.80
2023-04-22T03:48:02.536Z,20.80
2023-04-22T03:50:55.715Z,20.80
2023-04-22T03:53:48.820Z,20.80
2023-04-22T03:56:41.303Z,20.80
2023-04-22T03:59:35.922Z,20.80
2023-04-22T04:02:29.659Z,20.80
2023-04-22T04:05:22.562Z,20.80
2023-04-22T04:08:15.854Z,20.80
2023-04-22T04:11:10.631Z,20.80
2023-04-22T04:14:03.882Z,20.80
2023-04-22T04:16:58.441Z,20.80
2023-04-22T04:19:51.473Z,20.80
2023-04-22T04:22:44.550Z,20.80
2023-04-22T04:25:38.717Z,20.80
2023-04-22T04:28:32.999Z,20.70
2023-04-22T04:31:26.794Z,20.70
2023-04-22T04:34:20.820Z,20.80
2023-04-22T04:37:13.554Z,20.80
2023-04-22T04:40:08.568Z,20.80
2023-04-22T04:43:04.370Z,20.80
2023-04-22T04:45:57.899Z,20.80
2023-04-22T04:48:51.621Z,20.80
2023-04-22T04:51:46.100Z,20.80
2023-04-22T04:54:39.653Z,20.80
2023-04-22T04:57:32.613Z,20.80
2023-04-22T05:00:25.707Z,20.80
2023-04-22T05:03:18.944Z,20.70
2023-04-22T05:06:12.602Z,20.80
2023-04-22T05:09:08.342Z,20.80
2023-04-22T05:12:01.852Z,20.70
2023-04-22T05:14:54.971Z,20.80
2023-04-22T05:17:48.550Z,20.80
2023-04-22T05:20:41.266Z,20.80
2023-04-22T05:23:37.528Z,20.80
2023-04-22T05:26:31.910Z,20.80
2023-04-22T05:29:24.949Z,20.80
2023-04-22T05:32:17.385Z,20.80
2023-04-22T05:35:11.541Z,20.80
2023-04-22T05:38:04.485Z,20.80
2023-04-22T05:40:57.739Z,20.80
2023-04-22T05:43:52.050Z,20.70
2023-04-22T05:46:46.787Z,20.70
2023-04-22T05:49:39.437Z,20.80
2023-04-22T05:52:32.675Z,20.80
2023-04-22T05:55:25.949Z,20.80
2023-04-22T05:58:18.894Z,20.80
2023-04-22T06:01:12.890Z,20.80
2023-04-22T06:04:06.475Z,20.80
2023-04-22T06:06:59.589Z,20.80
2023-04-22T06:10:02.103Z,20.80
2023-04-22T06:12:57.565Z,20.80
2023-04-22T06:15:51.263Z,20.80
2023-04-22T06:18:46.429Z,20.80
2023-04-22T06:21:40.463Z,20.80
2023-04-22T06:24:33.705Z,20.80
2023-04-22T06:27:26.960Z,20.80
2023-04-22T06:30:20.017Z,20.80
2023-04-22T06:33:14.029Z,20.80
2023-04-22T06:36:09.648Z,20.80
2023-04-22T06:39:06.114Z,20.80
2023-04-22T06:41:59.477Z,20.80
2023-04-22T06:44:52.337Z,20.80
2023-04-22T06:47:46.029Z,20.80
2023-04-22T06:50:39.952Z,20.90
2023-04-22T06:53:34.333Z,20.90
2023-04-22T06:56:27.980Z,20.90
2023-04-22T06:59:20.841Z,20.90
2023-04-22T07:02:13.706Z,20.90
2023-04-22T07:05:06.879Z,20.90
2023-04-22T07:07:59.567Z,20.90
2023-04-22T07:10:53.929Z,20.90
2023-04-22T07:13:46.774Z,20.90
2023-04-22T07:16:40.114Z,21.00
2023-04-22T07:19:35.196Z,21.00
2023-04-22T07:22:28.664Z,21.00
2023-04-22T07:25:21.457Z,21.00
2023-04-22T07:28:16.330Z,21.00
2023-04-22T07:31:09.756Z,21.00
2023-04-22T07:34:03.018Z,21.00
2023-04-22T07:36:55.774Z,21.10
2023-04-22T07:39:51.632Z,21.10
2023-04-22T07:42:44.831Z,21.10
2023-04-22T07:45:39.598Z,21.10
2023-04-22T07:48:32.662Z,21.20
2023-04-22T07:51:26.010Z,21.20
2023-04-22T07:54:18.868Z,21.20
2023-04-22T07:57:11.750Z,21.20
2023-04-22T08:00:05.707Z,21.20
2023-04-22T08:03:00.167Z,21.20
2023-04-22T08:05:53.765Z,21.30
2023-04-22T08:08:47.138Z,21.30
2023-04-22T08:11:40.747Z,21.30
2023-04-22T08:14:33.847Z,21.30
2023-04-22T08:17:27.349Z,21.30
2023-04-22T08:20:21.985Z,21.30
2023-04-22T08:23:14.658Z,21.30
2023-04-22T08:26:08.232Z,21.30
2023-04-22T08:29:02.192Z,21.30
2023-04-22T08:31:55.976Z,21.30
2023-04-22T08:34:51.834Z,21.40
2023-04-22T08:37:48.371Z,21.40
2023-04-22T08:40:42.921Z,21.40
2023-04-22T08:43:36.445Z,21.50
2023-04-22T08:46:31.776Z,21.50
2023-04-22T08:49:26.120Z,21.50
2023-04-22T08:52:18.626Z,21.60
2023-04-22T08:55:13.257Z,21.60
2023-04-22T08:58:07.294Z,21.70
2023-04-22T09:01:02.244Z,21.70
2023-04-22T09:04:00.162Z,21.70
2023-04-22T09:06:53.654Z,21.80
2023-04-22T09:09:48.136Z,21.80
2023-04-22T09:12:43.770Z,21.80
2023-04-22T09:15:36.507Z,21.90
2023-04-22T09:18:29.997Z,21.90
2023-04-22T09:21:27.934Z,22.00
2023-04-22T09:24:21.538Z,22.00
2023-04-22T09:27:14.902Z,22.00
2023-04-22T09:30:11.912Z,22.00
2023-04-22T09:33:06.203Z,22.00
2023-04-22T09:35:59.967Z,22.00
2023-04-22T09:38:54.380Z,22.00
2023-04-22T09:41:56.501Z,22.00
2023-04-22T09:44:52.591Z,22.00
2023-04-22T09:47:48.845Z,22.00
2023-04-22T09:50:44.955Z,22.00
2023-04-22T09:53:38.573Z,22.00
2023-04-22T09:56:49.289Z,22.00
2023-04-22T09:59:43.314Z,22.00
2023-04-22T10:02:36.808Z,22.00
2023-04-22T10:05:31.766Z,22.00
2023-04-22T10:08:24.465Z,22.00
2023-04-22T10:11:17.907Z,22.00
2023-04-22T10:14:13.971Z,22.00
2023-04-22T10:17:07.502Z,22.10
2023-04-22T10:20:03.696Z,22.20
2023-04-22T10:22:59.084Z,22.20
2023-04-22T10:25:54.820Z,22.20
2023-04-22T10:28:47.960Z,22.20
2023-04-22T10:31:40.782Z,22.30
2023-04-22T10:34:34.222Z,22.30
2023-04-22T10:37:27.042Z,22.30
2023-04-22T10:40:22.726Z,22.40
2023-04-22T10:43:15.986Z,22.40
2023-04-22T10:46:29.452Z,22.40
2023-04-22T10:49:25.241Z,22.50
2023-04-22T10:52:29.110Z,22.50
2023-04-22T10:55:23.638Z,22.40
2023-04-22T10:58:21.159Z,22.50
2023-04-22T11:01:16.564Z,22.50
2023-04-22T11:04:22.998Z,22.50
2023-04-22T11:07:17.047Z,22.60
2023-04-22T11:10:15.920Z,22.60
2023-04-22T11:13:13.761Z,22.70
2023-04-22T11:16:09.724Z,22.70
2023-04-22T11:19:03.997Z,22.70
2023-04-22T11:21:58.588Z,22.80
2023-04-22T11:24:55.639Z,22.80
2023-04-22T11:27:49.041Z,22.80
2023-04-22T11:30:43.046Z,22.80
2023-04-22T11:33:36.052Z,22.80
2023-04-22T11:36:28.698Z,22.80
2023-04-22T11:39:21.765Z,22.90
2023-04-22T11:42:15.167Z,22.90
2023-04-22T11:45:09.240Z,22.90
2023-04-22T11:48:06.247Z,22.90
2023-04-22T11:51:12.941Z,23.00
2023-04-22T11:54:06.150Z,22.90
2023-04-22T11:56:58.681Z,23.00
2023-04-22T11:59:59.906Z,23.00
2023-04-22T12:02:58.173Z,22.90
2023-04-22T12:05:54.375Z,22.90
2023-04-22T12:08:51.197Z,22.90
2023-04-22T12:11:46.006Z,22.90
2023-04-22T12:14:38.698Z,22.90
2023-04-22T12:17:32.984Z,22.80
2023-04-22T12:20:25.666Z,22.90
2023-04-22T12:23:23.396Z,22.80
2023-04-22T12:26:17.727Z,22.80
2023-04-22T12:29:11.114Z,22.80
2023-04-22T12:32:03.962Z,22.80
2023-04-22T12:34:57.202Z,22.80
2023-04-22T12:37:50.701Z,22.70
2023-04-22T12:40:46.176Z,22.70
2023-04-22T12:43:39.469Z,22.70
2023-04-22T12:46:33.856Z,22.70
2023-04-22T12:49:26.997Z,22.70
2023-04-22T12:52:20.101Z,22.70
2023-04-22T12:55:16.287Z,22.60
2023-04-22T12:58:10.685Z,22.60
2023-04-22T13:01:03.981Z,22.60
2023-04-22T13:03:57.375Z,22.60
2023-04-22T13:06:56.100Z,22.60
2023-04-22T13:09:48.964Z,22.60
2023-04-22T13:12:43.521Z,22.60
2023-04-22T13:15:38.835Z,22.60
2023-04-22T13:18:31.896Z,22.50
2023-04-22T13:21:24.824Z,22.50
2023-04-22T13:24:18.288Z,22.50
2023-04-22T13:27:11.305Z,22.50
2023-04-22T13:30:04.748Z,22.40
2023-04-22T13:32:59.552Z,22.40
2023-04-22T13:35:53.319Z,22.40
2023-04-22T13:38:46.370Z,22.40
2023-04-22T13:41:40.143Z,22.40
2023-04-22T13:44:33.135Z,22.40
2023-04-22T13:47:26.364Z,22.30
2023-04-22T13:50:21.734Z,22.30
2023-04-22T13:53:15.396Z,22.30
2023-04-22T13:56:08.134Z,22.30
2023-04-22T13:59:01.625Z,22.30
2023-04-22T14:01:55.131Z,22.20
2023-04-22T14:04:47.910Z,22.20
2023-04-22T14:07:42.349Z,22.20
2023-04-22T14:10:34.860Z,22.20
2023-04-22T14:13:28.662Z,22.20
2023-04-22T14:16:22.391Z,22.20
2023-04-22T14:19:16.495Z,22.10
2023-04-22T14:22:09.982Z,22.10
2023-04-22T14:25:04.673Z,22.10
2023-04-22T14:27:57.971Z,22.10
2023-04-22T14:30:51.375Z,22.10
2023-04-22T14:33:44.106Z,22.10
2023-04-22T14:36:37.422Z,22.10
2023-04-22T14:39:31.133Z,22.10
2023-04-22T14:42:26.047Z,22.10
2023-04-22T14:45:19.050Z,22.10
2023-04-22T14:48:12.857Z,22.10
2023-04-22T14:51:06.274Z,22.00
2023-04-22T14:53:59.413Z,22.00
2023-04-22T14:56:54.426Z,22.00
2023-04-22T14:59:49.441Z,22.00
2023-04-22T15:02:43.681Z,22.00
2023-04-22T15:05:36.784Z,22.00
2023-04-22T15:08:29.912Z,22.00
2023-04-22T15:11:23.276Z,22.00
2023-04-22T15:14:17.224Z,22.00
2023-04-22T15:17:12.774Z,22.00
2023-04-22T15:20:09.138Z,22.00
2023-04-22T15:23:03.081Z,22.00
2023-04-22T15:25:56.084Z,21.90
2023-04-22T15:28:50.731Z,21.90
2023-04-22T15:31:43.888Z,22.00
2023-04-22T15:34:38.799Z,22.00
2023-04-22T15:37:32.024Z,21.90
2023-04-22T15:40:25.629Z,22.00
2023-04-22T15:43:19.059Z,21.90
2023-04-22T15:46:14.596Z,21.90
2023-04-22T15:49:08.083Z,22.00
2023-04-22T15:52:02.691Z,21.90
2023-04-22T15:54:56.484Z,22.00
2023-04-22T15:57:50.321Z,22.00
2023-04-22T16:00:43.362Z,22.00
2023-04-22T16:03:36.373Z,21.90
2023-04-22T16:06:28.998Z,21.90
2023-04-22T16:09:23.345Z,21.90
2023-04-22T16:12:16.460Z,22.00
2023-04-22T16:15:10.581Z,21.90
2023-04-22T16:18:05.149Z,21.90
2023-04-22T16:21:00.325Z,21.90
2023-04-22T16:23:53.085Z,22.00
2023-04-22T16:26:47.243Z,21.90
2023-04-22T16:29:40.161Z,22.00
2023-04-22T16:32:33.241Z,22.00
2023-04-22T16:35:26.391Z,21.90
2023-04-22T16:38:20.525Z,21.90
2023-04-22T16:41:15.262Z,21.90
2023-04-22T16:44:10.006Z,22.00
2023-04-22T16:47:03.261Z,21.90
2023-04-22T16:49:56.183Z,22.00
2023-04-22T16:52:49.249Z,21.90
2023-04-22T16:55:43.307Z,21.90
2023-04-22T16:58:36.386Z,21.90
2023-04-22T17:01:31.297Z,21.90
2023-04-22T17:04:24.460Z,21.90
2023-04-22T17:07:17.110Z,21.90
2023-04-22T17:10:10.513Z,21.90
2023-04-22T17:13:03.615Z,21.90
2023-04-22T17:15:57.303Z,21.90
2023-04-22T17:18:51.679Z,21.90
2023-04-22T17:21:45.022Z,21.90
2023-04-22T17:24:38.371Z,21.90
2023-04-22T17:27:31.612Z,21.90
2023-04-22T17:30:25.399Z,21.90
2023-04-22T17:33:18.255Z,21.90
2023-04-22T17:36:12.983Z,21.90
2023-04-22T17:39:06.419Z,21.90
2023-04-22T17:41:59.390Z,21.90
2023-04-22T17:44:51.855Z,21.90
2023-04-22T17:47:50.337Z,21.90
2023-04-22T17:50:43.276Z,21.90
2023-04-22T17:53:40.894Z,21.90
2023-04-22T17:56:34.273Z,21.90
2023-04-22T17:59:27.072Z,21.90
2023-04-22T18:02:21.866Z,21.90
2023-04-22T18:05:15.408Z,21.90
2023-04-22T18:08:10.322Z,21.90
2023-04-22T18:11:05.101Z,21.90
2023-04-22T18:13:58.122Z,21.90
2023-04-22T18:16:51.213Z,21.90
2023-04-22T18:19:44.578Z,21.90
2023-04-22T18:22:37.031Z,21.90
2023-04-22T18:25:30.391Z,21.90
2023-04-22T18:28:24.316Z,21.90
2023-04-22T18:31:17.221Z,21.90
2023-04-22T18:34:12.749Z,21.90
2023-04-22T18:37:07.215Z,21.90
2023-04-22T18:40:00.299Z,21.90
2023-04-22T18:42:53.578Z,21.90
2023-04-22T18:45:47.873Z,21.90
2023-04-22T18:48:41.449Z,21.90
2023-04-22T18:51:34.254Z,21.80
2023-04-22T18:54:29.415Z,21.90
2023-04-22T18:57:24.427Z,21.80
2023-04-22T19:00:18.103Z,21.90
2023-04-22T19:03:13.048Z,21.90
2023-04-22T19:06:06.868Z,21.80
2023-04-22T19:09:00.308Z,21.80
2023-04-22T19:11:53.325Z,21.80
2023-04-22T19:14:47.099Z,21.80
2023-04-22T19:17:40.550Z,21.80
2023-04-22T19:20:34.435Z,21.80
2023-04-22T19:23:27.502Z,21.80
2023-04-22T19:26:21.063Z,21.80
2023-04-22T19:29:15.956Z,21.80
2023-04-22T19:32:10.898Z,21.80
2023-04-22T19:35:04.709Z,21.80
2023-04-22T19:38:00.796Z,21.80
2023-04-22T19:40:54.724Z,21.80
2023-04-22T19:43:48.815Z,21.80
2023-04-22T19:46:42.762Z,21.80
2023-04-22T19:49:38.603Z,21.90
2023-04-22T19:52:34.335Z,21.90
2023-04-22T19:55:29.148Z,21.80
2023-04-22T19:58:23.801Z,21.90
2023-04-22T20:01:17.646Z,21.80
2023-04-22T20:04:11.107Z,21.80
2023-04-22T20:07:04.779Z,21.80
2023-04-22T20:09:58.843Z,21.80
2023-04-22T20:12:53.820Z,21.80
2023-04-22T20:15:47.919Z,21.80
2023-04-22T20:18:41.821Z,21.80
2023-04-22T20:21:36.712Z,21.80
2023-04-22T20:24:33.333Z,21.80
2023-04-22T20:27:26.729Z,21.80
2023-04-22T20:30:21.968Z,21.80
2023-04-22T20:33:17.971Z,21.80
2023-04-22T20:36:14.716Z,21.80
2023-04-22T20:39:12.439Z,21.80
2023-04-22T20:42:06.582Z,21.80
2023-04-22T20:44:59.037Z,21.80
2023-04-22T20:47:54.493Z,21.80
2023-04-22T20:50:47.313Z,21.70
2023-04-22T20:53:41.252Z,21.70
2023-04-22T20:56:34.622Z,21.70
2023-04-22T20:59:27.486Z,21.70
2023-04-22T21:02:22.354Z,21.70
2023-04-22T21:05:17.063Z,21.70
2023-04-22T21:08:22.779Z,21.70
2023-04-22T21:11:16.771Z,21.70
2023-04-22T21:14:12.445Z,21.80
2023-04-22T21:17:14.257Z,21.70
2023-04-22T21:20:09.185Z,21.70
2023-04-22T21:23:06.644Z,21.70
2023-04-22T21:26:01.444Z,21.70
2023-04-22T21:28:54.651Z,21.70
2023-04-22T21:32:01.265Z,21.70
2023-04-22T21:35:00.551Z,21.70
2023-04-22T21:37:53.775Z,21.70
2023-04-22T21:40:48.779Z,21.70
2023-04-22T21:43:42.272Z,21.70
2023-04-22T21:46:35.598Z,21.70
2023-04-22T21:49:28.493Z,21.70
2023-04-22T21:52:21.444Z,21.70
2023-04-22T21:55:14.582Z,21.70
2023-04-22T21:58:09.296Z,21.70
2023-04-22T22:01:02.343Z,21.70
2023-04-22T22:03:55.317Z,21.70
2023-04-22T22:06:48.811Z,21.70
2023-04-22T22:09:44.031Z,21.70
2023-04-22T22:12:37.951Z,21.70
2023-04-22T22:15:32.926Z,21.70
2023-04-22T22:18:26.708Z,21.70
2023-04-22T22:21:19.525Z,21.70
2023-04-22T22:24:12.878Z,21.70
2023-04-22T22:27:07.099Z,21.70
2023-04-22T22:30:00.835Z,21.70
2023-04-22T22:32:55.932Z,21.70
2023-04-22T22:35:49.681Z,21.70
2023-04-22T22:38:42.303Z,21.70
2023-04-22T22:41:36.377Z,21.70
2023-04-22T22:44:29.334Z,21.70
2023-04-22T22:47:24.809Z,21.70
2023-04-22T22:50:20.095Z,21.70
2023-04-22T22:53:13.788Z,21.70
2023-04-22T22:56:08.311Z,21.70
2023-04-22T22:59:01.655Z,21.70
2023-04-22T23:01:54.810Z,21.70
2023-04-22T23:04:48.366Z,21.70
2023-04-22T23:07:42.658Z,21.70
2023-04-22T23:10:35.429Z,21.70
2023-04-22T23:13:28.813Z,21.70
2023-04-22T23:16:22.318Z,21.70
2023-04-22T23:19:18.007Z,21.70
2023-04-22T23:22:12.766Z,21.70
2023-04-22T23:25:08.438Z,21.70
2023-04-22T23:28:02.680Z,21.70
2023-04-22T23:30:56.709Z,21.70
2023-04-22T23:33:51.222Z,21.70
2023-04-22T23:36:45.950Z,21.70
2023-04-22T23:39:42.107Z,21.70
2023-04-22T23:42:36.808Z,21.70
2023-04-22T23:45:29.874Z,21.70
2023-04-22T23:48:23.934Z,21.70
2023-04-22T23:51:17.640Z,21.70
2023-04-22T23:54:10.621Z,21.70
2023-04-22T23:57:03.955Z,21.70
2023-04-22T23:59:59.706Z,21.70
